createdAt,value
2022-10-28T00:01:21.297Z,100031.53
2022-10-28T00:03:49.917Z,100032.97
2022-10-28T00:06:21.456Z,100031.38
2022-10-28T00:08:48.603Z,100028.31
2022-10-28T00:11:17.474Z,100025.31
2022-10-28T00:13:45.709Z,100024.03
2022-10-28T00:16:15.593Z,100022.09
2022-10-28T00:18:43.554Z,100019.19
2022-10-28T00:21:12.222Z,100018.06
2022-10-28T00:23:41.005Z,100016.63
2022-10-28T00:26:10.106Z,100016.00
2022-10-28T00:28:40.928Z,100011.97
2022-10-28T00:31:09.063Z,100013.91
2022-10-28T00:33:36.121Z,100010.06
2022-10-28T00:36:15.226Z,100014.53
2022-10-28T00:38:48.377Z,100009.72
2022-10-28T00:41:17.398Z,100010.69
2022-10-28T00:43:46.460Z,100005.88
2022-10-28T00:46:18.813Z,100009.41
2022-10-28T00:48:51.093Z,100010.66
2022-10-28T00:51:21.043Z,100007.47
2022-10-28T00:53:52.028Z,100007.47
2022-10-28T00:56:19.873Z,99999.97
2022-10-28T00:58:48.632Z,99999.44
2022-10-28T01:01:15.706Z,99998.16
2022-10-28T01:03:42.822Z,100004.72
2022-10-28T01:06:10.764Z,100009.34
2022-10-28T01:08:38.163Z,99991.59
2022-10-28T01:11:23.441Z,100002.91
2022-10-28T01:14:03.879Z,100001.31
2022-10-28T01:16:38.781Z,100000.56
2022-10-28T01:19:41.835Z,100000.03
2022-10-28T01:22:18.756Z,99998.59
2022-10-28T01:25:06.773Z,99994.47
2022-10-28T01:28:07.083Z,100004.69
2022-10-28T01:30:43.148Z,99997.16
2022-10-28T01:33:20.565Z,99996.50
2022-10-28T01:35:52.871Z,99996.50
2022-10-28T01:38:30.082Z,99995.53
2022-10-28T01:41:04.122Z,99994.09
2022-10-28T01:43:34.477Z,99998.22
2022-10-28T01:46:06.242Z,99999.19
2022-10-28T01:48:40.171Z,99985.28
2022-10-28T01:51:13.760Z,100002.50
2022-10-28T01:53:44.151Z,99999.28
2022-10-28T01:56:16.378Z,99991.63
2022-10-28T01:58:45.141Z,99991.00
2022-10-28T02:01:13.494Z,99996.91
2022-10-28T02:03:41.915Z,99987.78
2022-10-28T02:06:17.272Z,99994.66
2022-10-28T02:08:49.478Z,100001.38
2022-10-28T02:11:30.967Z,99997.78
2022-10-28T02:14:07.299Z,99991.88
2022-10-28T02:16:40.546Z,99993.78
2022-10-28T02:19:15.922Z,99995.38
2022-10-28T02:21:49.393Z,99990.44
2022-10-28T02:24:21.356Z,100003.03
2022-10-28T02:26:54.047Z,100004.25
2022-10-28T02:29:26.968Z,100006.81
2022-10-28T02:31:58.430Z,99995.28
2022-10-28T02:34:34.018Z,99991.44
2022-10-28T02:37:06.347Z,99989.19
2022-10-28T02:39:39.611Z,100005.63
2022-10-28T02:42:09.894Z,99999.84
2022-10-28T02:44:42.486Z,99998.41
2022-10-28T02:47:15.240Z,100002.53
2022-10-28T02:49:47.317Z,99999.81
2022-10-28T02:52:16.942Z,100004.63
2022-10-28T02:54:49.355Z,100009.75
2022-10-28T02:57:20.066Z,100006.22
2022-10-28T02:59:52.961Z,100006.06
2022-10-28T03:02:20.360Z,100014.69
2022-10-28T03:04:48.714Z,100002.22
2022-10-28T03:07:15.742Z,100006.38
2022-10-28T03:09:43.425Z,100003.53
2022-10-28T03:12:10.534Z,100006.88
2022-10-28T03:14:37.820Z,100000.97
2022-10-28T03:17:05.163Z,100001.63
2022-10-28T03:19:32.212Z,100006.59
2022-10-28T03:22:00.915Z,100005.78
2022-10-28T03:24:27.955Z,100010.88
2022-10-28T03:26:55.229Z,100002.41
2022-10-28T03:29:22.182Z,100007.53
2022-10-28T03:31:49.237Z,100012.97
2022-10-28T03:34:16.238Z,100000.63
2022-10-28T03:36:43.348Z,100006.03
2022-10-28T03:39:11.708Z,100007.16
2022-10-28T03:41:38.825Z,99999.63
2022-10-28T03:44:06.141Z,100003.13
2022-10-28T03:46:35.178Z,100011.44
2022-10-28T03:49:06.193Z,100017.50
2022-10-28T03:51:33.467Z,100003.78
2022-10-28T03:54:00.547Z,100013.19
2022-10-28T03:56:28.883Z,99999.94
2022-10-28T03:58:55.835Z,100001.19
2022-10-28T04:01:22.881Z,100009.00
2022-10-28T04:03:49.959Z,100001.78
2022-10-28T04:06:17.171Z,100006.22
2022-10-28T04:08:44.164Z,100002.72
2022-10-28T04:11:11.218Z,100010.69
2022-10-28T04:13:39.750Z,100003.31
2022-10-28T04:16:07.550Z,100000.56
2022-10-28T04:18:35.558Z,100003.13
2022-10-28T04:21:02.917Z,100012.53
2022-10-28T04:23:29.837Z,100005.16
2022-10-28T04:25:56.954Z,100005.59
2022-10-28T04:28:27.108Z,100003.47
2022-10-28T04:30:55.493Z,100006.19
2022-10-28T04:33:22.448Z,100014.78
2022-10-28T04:35:49.439Z,100013.47
2022-10-28T04:38:16.494Z,100015.38
2022-10-28T04:40:44.052Z,100011.06
2022-10-28T04:43:11.925Z,100013.63
2022-10-28T04:45:39.556Z,100018.38
2022-10-28T04:48:09.522Z,100019.16
2022-10-28T04:50:36.655Z,100014.72
2022-10-28T04:53:10.707Z,100017.00
2022-10-28T04:55:37.700Z,100027.50
2022-10-28T04:58:04.825Z,100027.63
2022-10-28T05:00:32.336Z,100023.78
2022-10-28T05:03:01.593Z,100030.47
2022-10-28T05:05:30.239Z,100026.97
2022-10-28T05:07:57.415Z,100022.53
2022-10-28T05:10:24.805Z,100028.22
2022-10-28T05:12:51.775Z,100030.19
2022-10-28T05:15:18.809Z,100039.09
2022-10-28T05:17:47.078Z,100038.69
2022-10-28T05:20:16.475Z,100043.59
2022-10-28T05:22:49.193Z,100041.44
2022-10-28T05:25:16.881Z,100050.41
2022-10-28T05:27:43.973Z,100044.16
2022-10-28T05:30:11.975Z,100043.16
2022-10-28T05:32:38.982Z,100053.16
2022-10-28T05:35:06.986Z,100052.53
2022-10-28T05:37:34.275Z,100048.09
2022-10-28T05:40:02.758Z,100052.63
2022-10-28T05:42:29.779Z,100050.81
2022-10-28T05:44:56.862Z,100051.47
2022-10-28T05:47:24.751Z,100053.53
2022-10-28T05:49:51.686Z,100048.06
2022-10-28T05:52:18.598Z,100045.41
2022-10-28T05:54:45.958Z,100048.06
2022-10-28T05:57:14.495Z,100054.88
2022-10-28T05:59:41.792Z,100058.59
2022-10-28T06:02:13.427Z,100057.78
2022-10-28T06:04:41.238Z,100062.34
2022-10-28T06:07:08.806Z,100061.59
2022-10-28T06:09:36.327Z,100068.94
2022-10-28T06:12:02.122Z,100066.13
2022-10-28T06:14:30.866Z,100060.91
2022-10-28T06:16:57.923Z,100056.41
2022-10-28T06:19:24.999Z,100062.59
2022-10-28T06:21:51.979Z,100063.66
2022-10-28T06:24:19.019Z,100061.53
2022-10-28T06:26:46.004Z,100064.41
2022-10-28T06:29:13.080Z,100060.84
2022-10-28T06:31:41.844Z,100067.25
2022-10-28T06:34:09.183Z,100072.44
2022-10-28T06:36:36.175Z,100069.69
2022-10-28T06:39:03.339Z,100076.03
2022-10-28T06:41:30.674Z,100067.66
2022-10-28T06:43:57.695Z,100064.06
2022-10-28T06:46:24.978Z,100066.44
2022-10-28T06:48:55.927Z,100071.09
2022-10-28T06:51:23.149Z,100070.56
2022-10-28T06:53:50.562Z,100073.22
2022-10-28T06:56:18.043Z,100068.66
2022-10-28T06:58:44.976Z,100074.47
2022-10-28T07:01:11.965Z,100069.25
2022-10-28T07:03:38.972Z,100070.25
2022-10-28T07:06:07.799Z,100071.19
2022-10-28T07:08:34.801Z,100067.00
2022-10-28T07:11:02.657Z,100057.09
2022-10-28T07:13:29.902Z,100054.25
2022-10-28T07:15:58.754Z,100057.94
2022-10-28T07:18:37.036Z,100062.41
2022-10-28T07:21:04.357Z,100058.84
2022-10-28T07:23:33.036Z,100051.41
2022-10-28T07:26:00.347Z,100060.84
2022-10-28T07:28:28.053Z,100054.00
2022-10-28T07:30:55.153Z,100054.56
2022-10-28T07:33:22.132Z,100050.47
2022-10-28T07:35:49.228Z,100045.88
2022-10-28T07:38:16.249Z,100046.59
2022-10-28T07:40:44.772Z,100044.44
2022-10-28T07:43:11.860Z,100044.06
2022-10-28T07:45:39.247Z,100040.78
2022-10-28T07:48:07.233Z,100048.22
2022-10-28T07:50:34.600Z,100048.22
2022-10-28T07:53:01.669Z,100048.59
2022-10-28T07:55:28.825Z,100044.44
2022-10-28T07:57:57.470Z,100045.97
2022-10-28T08:00:24.619Z,100040.94
2022-10-28T08:02:51.594Z,100042.78
2022-10-28T08:05:18.848Z,100038.53
2022-10-28T08:07:47.075Z,100038.50
2022-10-28T08:10:14.381Z,100034.47
2022-10-28T08:12:41.367Z,100040.59
2022-10-28T08:15:12.773Z,100033.88
2022-10-28T08:17:39.944Z,100030.53
2022-10-28T08:20:07.456Z,100031.28
2022-10-28T08:22:34.528Z,100022.59
2022-10-28T08:25:01.877Z,100025.97
2022-10-28T08:27:28.935Z,100021.53
2022-10-28T08:29:55.977Z,100026.53
2022-10-28T08:32:24.579Z,100024.78
2022-10-28T08:34:51.587Z,100027.97
2022-10-28T08:37:18.674Z,100026.41
2022-10-28T08:39:45.793Z,100029.31
2022-10-28T08:42:35.537Z,100020.16
2022-10-28T08:45:20.296Z,100032.03
2022-10-28T08:47:56.832Z,100029.41
2022-10-28T08:50:27.843Z,100022.31
2022-10-28T08:52:59.293Z,100007.88
2022-10-28T08:55:30.729Z,100023.09
2022-10-28T08:58:02.703Z,100019.06
2022-10-28T09:00:32.727Z,100017.38
2022-10-28T09:03:14.970Z,100012.06
2022-10-28T09:05:44.749Z,100018.84
2022-10-28T09:08:21.532Z,100007.66
2022-10-28T09:11:02.596Z,100007.53
2022-10-28T09:13:38.193Z,100017.34
2022-10-28T09:16:16.348Z,100004.06
2022-10-28T09:18:52.192Z,100003.88
2022-10-28T09:21:23.028Z,100009.25
2022-10-28T09:23:56.586Z,99996.91
2022-10-28T09:26:46.106Z,99996.63
2022-10-28T09:29:21.799Z,99990.34
2022-10-28T09:31:53.166Z,99992.19
2022-10-28T09:34:31.803Z,99986.75
2022-10-28T09:37:04.667Z,99980.16
2022-10-28T09:39:43.343Z,99974.41
2022-10-28T09:42:18.148Z,99977.38
2022-10-28T09:44:49.760Z,99967.72
2022-10-28T09:47:21.201Z,99974.19
2022-10-28T09:49:51.750Z,99963.66
2022-10-28T09:52:22.763Z,99961.50
2022-10-28T09:54:52.197Z,99952.94
2022-10-28T09:57:19.872Z,99958.41
2022-10-28T09:59:47.242Z,99952.25
2022-10-28T10:02:29.849Z,99952.75
2022-10-28T10:04:59.637Z,99950.81
2022-10-28T10:07:33.093Z,99954.94
2022-10-28T10:12:38.104Z,99944.94
2022-10-28T10:15:07.725Z,99943.19
2022-10-28T10:17:41.608Z,99943.06
2022-10-28T10:20:11.834Z,99940.94
2022-10-28T10:22:41.017Z,99936.28
2022-10-28T10:25:29.823Z,99930.13
2022-10-28T10:27:59.882Z,99923.50
2022-10-28T10:30:30.684Z,99925.84
2022-10-28T10:32:59.135Z,99934.34
2022-10-28T10:35:30.318Z,99918.41
2022-10-28T10:37:59.786Z,99922.63
2022-10-28T10:40:31.312Z,99910.66
2022-10-28T10:43:21.550Z,99914.19
2022-10-28T10:46:01.615Z,99909.88
2022-10-28T10:48:29.000Z,99912.00
2022-10-28T10:50:58.206Z,99912.59
2022-10-28T10:53:26.815Z,99907.50
2022-10-28T10:55:57.097Z,99904.97
2022-10-28T10:58:26.844Z,99900.16
2022-10-28T11:00:57.846Z,99906.25
2022-10-28T11:03:28.296Z,99898.09
2022-10-28T11:06:22.500Z,99902.41
2022-10-28T11:08:46.227Z,99897.00
2022-10-28T11:11:18.620Z,99901.13
2022-10-28T11:13:46.794Z,99903.50
2022-10-28T11:16:22.502Z,99896.94
2022-10-28T11:18:51.251Z,99899.78
2022-10-28T11:21:44.357Z,99897.94
2022-10-28T11:24:28.272Z,99895.09
2022-10-28T11:27:03.630Z,99892.31
2022-10-28T11:29:30.866Z,99894.22
2022-10-28T11:32:27.688Z,99887.47
2022-10-28T11:35:23.635Z,99884.44
2022-10-28T11:38:02.490Z,99878.44
2022-10-28T11:40:37.581Z,99871.97
2022-10-28T11:43:19.796Z,99877.38
2022-10-28T11:45:55.087Z,99874.25
2022-10-28T11:48:35.106Z,99881.47
2022-10-28T11:51:23.908Z,99873.25
2022-10-28T11:54:15.070Z,99871.03
2022-10-28T11:56:46.189Z,99862.75
2022-10-28T11:59:41.894Z,99862.56
2022-10-28T12:02:30.828Z,99863.69
2022-10-28T12:05:04.231Z,99859.53
2022-10-28T12:07:48.556Z,99857.03
2022-10-28T12:10:33.166Z,99854.13
2022-10-28T12:13:10.249Z,99857.63
2022-10-28T12:15:45.901Z,99843.19
2022-10-28T12:18:23.016Z,99842.88
2022-10-28T12:20:57.997Z,99843.09
2022-10-28T12:23:26.274Z,99837.16
2022-10-28T12:25:57.551Z,99839.69
2022-10-28T12:28:28.146Z,99843.81
2022-10-28T12:30:56.924Z,99839.50
2022-10-28T12:33:27.798Z,99839.50
2022-10-28T12:36:15.430Z,99831.75
2022-10-28T12:38:46.860Z,99828.78
2022-10-28T12:41:21.460Z,99827.00
2022-10-28T12:43:53.237Z,99827.56
2022-10-28T12:46:45.007Z,99821.63
2022-10-28T12:49:18.581Z,99827.25
2022-10-28T12:51:46.281Z,99825.06
2022-10-28T12:54:21.552Z,99824.50
2022-10-28T12:56:55.159Z,99828.22
2022-10-28T12:59:30.752Z,99831.78
2022-10-28T13:02:01.445Z,99827.19
2022-10-28T13:04:29.516Z,99826.00
2022-10-28T13:07:14.352Z,99822.66
2022-10-28T13:09:50.561Z,99823.78
2022-10-28T13:12:49.569Z,99825.88
2022-10-28T13:15:34.168Z,99822.69
2022-10-28T13:18:23.656Z,99820.09
2022-10-28T13:20:59.729Z,99824.09
2022-10-28T13:23:34.761Z,99820.13
2022-10-28T13:26:15.545Z,99820.59
2022-10-28T13:28:46.780Z,99805.56
2022-10-28T13:31:15.513Z,99817.06
2022-10-28T13:33:50.665Z,99814.41
2022-10-28T13:36:20.795Z,99818.38
2022-10-28T13:38:53.853Z,99813.69
2022-10-28T13:41:36.635Z,99814.44
2022-10-28T13:44:27.002Z,99807.88
2022-10-28T13:47:25.222Z,99814.16
2022-10-28T13:50:32.852Z,99813.66
2022-10-28T13:53:36.446Z,99811.06
2022-10-28T13:56:16.093Z,99815.06
2022-10-28T13:58:50.518Z,99813.28
2022-10-28T14:02:01.585Z,99817.00
2022-10-28T14:04:37.527Z,99808.66
2022-10-28T14:07:27.971Z,99809.94
2022-10-28T14:09:58.912Z,99812.38
2022-10-28T14:12:31.493Z,99811.31
2022-10-28T14:15:18.099Z,99806.59
2022-10-28T14:17:51.359Z,99806.06
2022-10-28T14:20:32.111Z,99807.88
2022-10-28T14:22:59.735Z,99811.03
2022-10-28T14:25:59.871Z,99804.44
2022-10-28T14:28:55.649Z,99803.63
2022-10-28T14:31:45.526Z,99805.19
2022-10-28T14:34:36.771Z,99805.94
2022-10-28T14:37:28.311Z,99805.34
2022-10-28T14:40:14.151Z,99808.94
2022-10-28T14:42:56.755Z,99811.69
2022-10-28T14:45:34.374Z,99801.41
2022-10-28T14:48:25.578Z,99809.16
2022-10-28T14:50:55.390Z,99798.56
2022-10-28T14:53:28.180Z,99805.28
2022-10-28T14:56:00.874Z,99804.91
2022-10-28T14:58:30.705Z,99810.00
2022-10-28T15:01:09.606Z,99809.84
2022-10-28T15:03:38.365Z,99811.28
2022-10-28T15:06:39.309Z,99813.19
2022-10-28T15:09:21.553Z,99810.91
2022-10-28T15:11:52.601Z,99820.69
2022-10-28T15:14:32.374Z,99820.25
2022-10-28T15:17:00.573Z,99821.63
2022-10-28T15:19:29.472Z,99828.00
2022-10-28T15:22:15.134Z,99822.31
2022-10-28T15:24:53.389Z,99821.06
2022-10-28T15:27:21.592Z,99818.31
2022-10-28T15:29:49.243Z,99819.38
2022-10-28T15:32:26.865Z,99816.09
2022-10-28T15:34:54.094Z,99820.81
2022-10-28T15:37:23.198Z,99826.31
2022-10-28T15:39:53.427Z,99821.94
2022-10-28T15:42:31.178Z,99823.84
2022-10-28T15:44:58.911Z,99828.28
2022-10-28T15:47:32.766Z,99827.19
2022-10-28T15:50:02.442Z,99828.25
2022-10-28T15:52:35.988Z,99838.13
2022-10-28T15:55:35.601Z,99826.38
2022-10-28T15:58:34.272Z,99825.50
2022-10-28T16:01:01.444Z,99836.91
2022-10-28T16:03:41.962Z,99836.69
2022-10-28T16:06:25.032Z,99827.06
2022-10-28T16:09:13.301Z,99832.00
2022-10-28T16:11:44.489Z,99834.84
2022-10-28T16:14:36.181Z,99834.47
2022-10-28T16:17:11.773Z,99834.78
2022-10-28T16:19:41.126Z,99837.25
2022-10-28T16:22:12.661Z,99841.41
2022-10-28T16:24:39.888Z,99836.16
2022-10-28T16:27:22.305Z,99840.06
2022-10-28T16:29:49.931Z,99842.16
2022-10-28T16:32:20.026Z,99843.28
2022-10-28T16:34:46.970Z,99835.34
2022-10-28T16:37:25.978Z,99840.41
2022-10-28T16:39:53.230Z,99847.50
2022-10-28T16:42:22.541Z,99852.97
2022-10-28T16:44:49.702Z,99847.03
2022-10-28T16:47:18.700Z,99843.16
2022-10-28T16:49:45.727Z,99848.41
2022-10-28T16:52:15.892Z,99842.88
2022-10-28T16:54:43.042Z,99847.34
2022-10-28T16:57:10.076Z,99838.09
2022-10-28T16:59:38.500Z,99845.97
2022-10-28T17:02:13.930Z,99849.84
2022-10-28T17:04:41.356Z,99854.94
2022-10-28T17:07:08.356Z,99857.44
2022-10-28T17:09:35.306Z,99854.88
2022-10-28T17:12:02.240Z,99857.50
2022-10-28T17:14:29.330Z,99854.19
2022-10-28T17:16:57.906Z,99856.59
2022-10-28T17:19:25.469Z,99849.06
2022-10-28T17:21:52.637Z,99852.84
2022-10-28T17:24:20.724Z,99856.84
2022-10-28T17:26:47.887Z,99854.31
2022-10-28T17:29:15.106Z,99855.94
2022-10-28T17:31:42.106Z,99862.94
2022-10-28T17:34:11.128Z,99863.75
2022-10-28T17:36:38.741Z,99859.03
2022-10-28T17:39:06.148Z,99864.06
2022-10-28T17:41:33.264Z,99861.09
2022-10-28T17:44:00.364Z,99858.31
2022-10-28T17:46:27.407Z,99857.97
2022-10-28T17:48:54.612Z,99863.97
2022-10-28T17:51:25.325Z,99853.25
2022-10-28T17:53:53.900Z,99860.84
2022-10-28T17:56:21.186Z,99856.88
2022-10-28T17:58:48.188Z,99850.16
2022-10-28T18:01:15.755Z,99850.31
2022-10-28T18:03:42.970Z,99858.28
2022-10-28T18:06:11.816Z,99857.50
2022-10-28T18:08:42.439Z,99853.72
2022-10-28T18:11:11.281Z,99853.56
2022-10-28T18:13:39.599Z,99851.75
2022-10-28T18:16:08.555Z,99849.75
2022-10-28T18:18:41.009Z,99848.38
2022-10-28T18:21:10.470Z,99854.50
2022-10-28T18:23:37.808Z,99846.56
2022-10-28T18:26:09.151Z,99846.16
2022-10-28T18:28:37.444Z,99848.34
2022-10-28T18:31:09.713Z,99846.53
2022-10-28T18:33:36.784Z,99849.88
2022-10-28T18:36:06.346Z,99858.81
2022-10-28T18:38:33.677Z,99859.41
2022-10-28T18:41:00.873Z,99861.97
2022-10-28T18:43:29.277Z,99859.78
2022-10-28T18:46:01.297Z,99862.50
2022-10-28T18:48:28.421Z,99857.13
2022-10-28T18:50:56.488Z,99861.47
2022-10-28T18:53:24.823Z,99865.81
2022-10-28T18:55:52.197Z,99864.59
2022-10-28T18:58:19.507Z,99869.53
2022-10-28T19:00:47.849Z,99861.00
2022-10-28T19:03:19.475Z,99862.31
2022-10-28T19:05:46.482Z,99862.47
2022-10-28T19:08:13.561Z,99858.06
2022-10-28T19:10:40.678Z,99858.63
2022-10-28T19:13:07.656Z,99866.75
2022-10-28T19:15:40.100Z,99865.31
2022-10-28T19:18:08.445Z,99871.59
2022-10-28T19:20:35.523Z,99873.31
2022-10-28T19:23:02.596Z,99867.50
2022-10-28T19:25:29.831Z,99871.81
2022-10-28T19:27:58.096Z,99881.50
2022-10-28T19:30:25.061Z,99871.78
2022-10-28T19:32:52.390Z,99872.47
2022-10-28T19:35:21.488Z,99884.31
2022-10-28T19:37:48.637Z,99870.22
2022-10-28T19:40:15.744Z,99875.13
2022-10-28T19:42:42.765Z,99874.88
2022-10-28T19:45:10.170Z,99877.66
2022-10-28T19:47:37.107Z,99877.66
2022-10-28T19:50:04.434Z,99889.09
2022-10-28T19:52:32.820Z,99885.91
2022-10-28T19:55:00.070Z,99877.75
2022-10-28T19:57:27.127Z,99887.44
2022-10-28T19:59:54.120Z,99893.50
2022-10-28T20:02:21.398Z,99891.41
2022-10-28T20:04:53.312Z,99890.53
2022-10-28T20:07:20.510Z,99888.69
2022-10-28T20:09:48.999Z,99889.03
2022-10-28T20:12:16.024Z,99882.25
2022-10-28T20:14:42.989Z,99890.16
2022-10-28T20:17:11.890Z,99888.72
2022-10-28T20:19:38.916Z,99888.88
2022-10-28T20:22:05.825Z,99883.97
2022-10-28T20:24:32.739Z,99884.31
2022-10-28T20:27:01.058Z,99893.53
2022-10-28T20:29:28.003Z,99899.03
2022-10-28T20:31:55.065Z,99902.31
2022-10-28T20:34:22.368Z,99903.47
2022-10-28T20:36:49.329Z,99900.91
2022-10-28T20:39:17.889Z,99899.69
2022-10-28T20:41:46.959Z,99894.44
2022-10-28T20:44:16.454Z,99905.25
2022-10-28T20:46:45.152Z,99893.13
2022-10-28T20:49:13.275Z,99896.22
2022-10-28T20:51:40.306Z,99894.19
2022-10-28T20:54:07.357Z,99893.59
2022-10-28T20:56:36.477Z,99895.91
2022-10-28T20:59:04.129Z,99888.38
2022-10-28T21:01:34.641Z,99895.28
2022-10-28T21:04:03.549Z,99887.31
2022-10-28T21:06:31.308Z,99895.72
2022-10-28T21:08:58.725Z,99894.47
2022-10-28T21:11:27.381Z,99897.91
2022-10-28T21:13:56.470Z,99892.13
2022-10-28T21:16:24.399Z,99893.75
2022-10-28T21:18:53.416Z,99897.00
2022-10-28T21:21:22.424Z,99894.78
2022-10-28T21:23:49.521Z,99899.28
2022-10-28T21:26:16.560Z,99899.66
2022-10-28T21:28:43.896Z,99898.84
2022-10-28T21:31:12.575Z,99898.38
2022-10-28T21:33:40.680Z,99902.09
2022-10-28T21:36:11.393Z,99892.00
2022-10-28T21:38:38.670Z,99894.91
2022-10-28T21:41:06.970Z,99885.78
2022-10-28T21:43:35.968Z,99882.16
2022-10-28T21:46:03.355Z,99885.06
2022-10-28T21:48:31.059Z,99883.81
2022-10-28T21:50:59.655Z,99881.16
2022-10-28T21:53:31.628Z,99882.16
2022-10-28T21:56:02.482Z,99880.97
2022-10-28T21:58:29.525Z,99880.03
2022-10-28T22:01:02.577Z,99877.53
2022-10-28T22:03:29.526Z,99888.13
2022-10-28T22:05:56.491Z,99874.06
2022-10-28T22:08:23.504Z,99877.13
2022-10-28T22:10:58.327Z,99879.56
2022-10-28T22:13:25.513Z,99877.16
2022-10-28T22:15:57.698Z,99884.06
2022-10-28T22:18:24.684Z,99875.75
2022-10-28T22:20:51.716Z,99873.50
2022-10-28T22:23:19.034Z,99875.44
2022-10-28T22:25:46.029Z,99870.63
2022-10-28T22:28:14.534Z,99869.69
2022-10-28T22:30:41.517Z,99865.59
2022-10-28T22:33:08.457Z,99885.47
2022-10-28T22:35:35.385Z,99875.88
2022-10-28T22:38:02.405Z,99873.47
2022-10-28T22:40:29.712Z,99878.94
2022-10-28T22:42:56.639Z,99876.53
2022-10-28T22:45:25.041Z,99881.22
2022-10-28T22:47:52.193Z,99883.59
2022-10-28T22:50:19.531Z,99876.59
2022-10-28T22:52:46.490Z,99882.06
2022-10-28T22:55:13.530Z,99875.81
2022-10-28T22:57:40.604Z,99873.09
2022-10-28T23:00:09.142Z,99868.31
2022-10-28T23:02:37.647Z,99873.94
2022-10-28T23:05:05.380Z,99865.94
2022-10-28T23:07:32.443Z,99869.13
2022-10-28T23:10:00.613Z,99866.41
2022-10-28T23:12:27.540Z,99875.66
2022-10-28T23:14:55.029Z,99877.28
2022-10-28T23:17:21.996Z,99882.72
2022-10-28T23:19:50.399Z,99863.69
2022-10-28T23:22:17.412Z,99870.72
2022-10-28T23:24:44.382Z,99868.34
2022-10-28T23:27:11.329Z,99865.16
2022-10-28T23:29:38.328Z,99863.69
2022-10-28T23:32:05.554Z,99857.97
2022-10-28T23:34:32.525Z,99857.47
2022-10-28T23:37:00.909Z,99861.00
2022-10-28T23:39:27.879Z,99859.25
2022-10-28T23:41:54.814Z,99861.00
2022-10-28T23:44:21.774Z,99859.41
2022-10-28T23:46:48.780Z,99858.78
2022-10-28T23:49:15.727Z,99849.47
2022-10-28T23:51:42.669Z,99855.28
2022-10-28T23:54:11.331Z,99853.19
2022-10-28T23:56:38.288Z,99856.88
2022-10-28T23:59:05.267Z,99855.41
